Time;durP1;ratioP1;P1;durP2;ratioP2;P2;SDS_P1;SDS_P2;PMS_P1;PMS_P2;Temp;Humidity;BMP_temperature;BMP_pressure;BME280_temperature;BME280_humidity;BME280_pressure;Samples;Min_cycle;Max_cycle;Signal;HPM_P1;HPM_P2
2022/03/23 00:01:45;;;;;;;16.60;13.27;;;6.20;90.20;;;;;;5061520;28;20273;-57
2022/03/23 00:04:11;;;;;;;16.43;13.77;;;6.00;90.20;;;;;;5064178;28;20193;-55
2022/03/23 00:06:37;;;;;;;16.20;13.13;;;6.40;90.30;;;;;;5050354;28;20281;-57
2022/03/23 00:09:02;;;;;;;17.02;13.50;;;6.40;90.40;;;;;;5062811;28;20212;-57
2022/03/23 00:11:28;;;;;;;15.27;12.70;;;6.30;90.40;;;;;;5059979;28;20315;-57
2022/03/23 00:13:54;;;;;;;16.20;13.63;;;6.40;90.80;;;;;;5061648;28;20196;-58
2022/03/23 00:16:20;;;;;;;19.65;13.50;;;5.50;90.50;;;;;;5044880;28;20185;-57
2022/03/23 00:18:46;;;;;;;14.37;12.83;;;5.60;90.60;;;;;;5061510;28;20189;-56
2022/03/23 00:21:11;;;;;;;17.17;12.57;;;6.20;91.40;;;;;;5050240;28;20236;-58
2022/03/23 00:23:37;;;;;;;16.50;12.53;;;6.10;90.80;;;;;;5050775;28;20189;-58
2022/03/23 00:26:03;;;;;;;13.47;11.70;;;6.10;90.60;;;;;;5055613;28;20260;-57
2022/03/23 00:28:29;;;;;;;14.93;12.40;;;5.50;90.60;;;;;;5055968;28;20715;-56
2022/03/23 00:30:55;;;;;;;17.20;13.23;;;6.00;91.20;;;;;;5069289;28;20219;-56
2022/03/23 00:33:23;;;;;;;15.73;12.90;;;5.50;91.00;;;;;;5062190;28;20451;-57
2022/03/23 00:35:49;;;;;;;14.57;12.02;;;5.80;91.10;;;;;;5049481;28;20444;-58
2022/03/23 00:38:16;;;;;;;14.30;12.50;;;5.90;90.90;;;;;;5061273;28;20184;-57
2022/03/23 00:40:44;;;;;;;16.65;13.32;;;6.20;91.10;;;;;;5060398;28;20442;-56
2022/03/23 00:43:10;;;;;;;13.75;11.77;;;5.40;90.60;;;;;;5050471;28;20185;-57
2022/03/23 00:45:37;;;;;;;15.52;12.35;;;6.00;91.00;;;;;;5051146;28;20185;-57
2022/03/23 00:48:03;;;;;;;13.45;10.90;;;5.60;91.00;;;;;;5053970;28;20235;-58
2022/03/23 00:50:29;;;;;;;15.27;11.45;;;5.90;91.20;;;;;;5042162;28;20606;-56
2022/03/23 00:52:55;;;;;;;15.90;12.40;;;6.00;91.10;;;;;;5051191;28;20236;-57
2022/03/23 00:55:20;;;;;;;19.13;11.60;;;5.80;91.10;;;;;;5063271;28;20180;-57
2022/03/23 00:57:46;;;;;;;18.00;11.80;;;5.40;90.80;;;;;;5053710;28;20195;-58
2022/03/23 01:00:17;;;;;;;16.27;11.33;;;5.20;90.90;;;;;;5051137;28;20564;-56
2022/03/23 01:02:44;;;;;;;15.25;11.60;;;6.20;91.50;;;;;;5057659;28;20668;-57
2022/03/23 01:05:11;;;;;;;16.27;12.20;;;5.40;90.70;;;;;;5061825;28;20192;-57
2022/03/23 01:07:38;;;;;;;15.20;11.55;;;5.70;91.20;;;;;;5062185;28;20208;-58
2022/03/23 01:10:06;;;;;;;12.82;11.15;;;5.80;91.40;;;;;;5061302;28;20221;-58
2022/03/23 01:12:31;;;;;;;14.35;11.00;;;5.50;91.20;;;;;;5051670;28;20682;-58
2022/03/23 01:14:57;;;;;;;16.38;11.40;;;5.60;91.00;;;;;;5050214;28;20188;-57
2022/03/23 01:17:24;;;;;;;14.30;11.20;;;5.80;91.50;;;;;;5050712;28;20553;-57
2022/03/23 01:19:49;;;;;;;14.23;11.15;;;5.40;91.40;;;;;;5049984;28;20453;-57
2022/03/23 01:22:16;;;;;;;15.83;10.90;;;5.00;91.40;;;;;;5052290;28;20287;-57
2022/03/23 01:24:43;;;;;;;12.35;10.93;;;5.30;91.40;;;;;;5049477;28;20211;-57
2022/03/23 01:27:08;;;;;;;13.15;11.07;;;5.50;92.10;;;;;;5052004;28;20187;-58
2022/03/23 01:29:34;;;;;;;15.67;11.07;;;4.60;92.20;;;;;;5050251;28;20670;-58
2022/03/23 01:32:00;;;;;;;14.00;11.10;;;5.20;92.50;;;;;;5049206;28;20531;-57
2022/03/23 01:34:25;;;;;;;14.20;11.17;;;5.00;92.00;;;;;;5050806;28;20223;-56
2022/03/23 01:36:51;;;;;;;14.30;11.27;;;5.30;92.00;;;;;;5034801;28;20191;-58
2022/03/23 01:39:16;;;;;;;18.00;12.20;;;5.00;91.90;;;;;;5062079;28;20188;-56
2022/03/23 01:41:42;;;;;;;13.23;11.60;;;5.10;91.90;;;;;;5061362;28;20289;-57
2022/03/23 01:44:20;;;;;;;16.93;11.47;;;5.00;92.10;;;;;;5056204;28;20215;-56
2022/03/23 01:47:14;;;;;;;13.32;10.93;;;5.30;92.30;;;;;;5060372;28;20449;-57
2022/03/23 01:49:42;;;;;;;12.90;10.45;;;5.20;92.30;;;;;;5054134;28;20818;-57
2022/03/23 01:52:11;;;;;;;14.40;11.52;;;5.00;91.90;;;;;;5049441;28;20216;-56
2022/03/23 01:54:38;;;;;;;13.70;10.45;;;5.60;92.30;;;;;;5041303;28;20279;-57
2022/03/23 01:57:07;;;;;;;12.20;10.55;;;4.70;91.70;;;;;;5050715;28;20180;-56
2022/03/23 01:59:34;;;;;;;14.00;11.48;;;5.00;91.90;;;;;;5049809;28;20187;-58
2022/03/23 02:02:00;;;;;;;13.52;10.80;;;5.10;91.80;;;;;;5060781;28;20613;-57
2022/03/23 02:04:26;;;;;;;12.63;11.00;;;5.10;91.40;;;;;;5049548;28;20202;-56
2022/03/23 02:06:52;;;;;;;11.52;10.30;;;5.00;91.60;;;;;;5050675;28;20279;-57
2022/03/23 02:09:18;;;;;;;12.77;10.75;;;4.70;91.70;;;;;;5056228;28;20214;-57
2022/03/23 02:11:45;;;;;;;15.75;11.23;;;4.90;91.70;;;;;;5056169;28;20306;-57
2022/03/23 02:14:12;;;;;;;13.05;10.50;;;5.00;92.20;;;;;;5062196;28;20173;-57
2022/03/23 02:16:49;;;;;;;14.88;10.77;;;4.30;92.00;;;;;;5052320;28;20180;-57
2022/03/23 02:19:16;;;;;;;14.80;11.75;;;5.00;92.50;;;;;;5058601;28;20560;-56
2022/03/23 02:21:45;;;;;;;14.57;11.10;;;4.80;92.50;;;;;;5054864;28;20270;-58
2022/03/23 02:24:12;;;;;;;13.77;10.95;;;4.90;92.70;;;;;;5057207;28;20190;-57
2022/03/23 02:26:38;;;;;;;13.32;10.85;;;4.90;92.30;;;;;;5060664;28;20194;-57
2022/03/23 02:29:06;;;;;;;12.77;10.60;;;4.90;92.50;;;;;;5063538;28;20203;-57
2022/03/23 02:31:32;;;;;;;14.88;10.68;;;4.90;92.60;;;;;;5068971;28;20521;-57
2022/03/23 02:33:58;;;;;;;12.43;10.83;;;4.30;92.20;;;;;;5051409;28;20571;-57
2022/03/23 02:36:24;;;;;;;15.20;10.13;;;3.70;91.90;;;;;;5067432;28;20445;-57
2022/03/23 02:38:49;;;;;;;15.17;10.73;;;5.30;92.70;;;;;;5056146;28;20186;-56
2022/03/23 02:41:15;;;;;;;15.00;11.50;;;4.70;92.60;;;;;;5054816;28;20219;-56
2022/03/23 02:43:41;;;;;;;14.20;11.80;;;4.10;92.40;;;;;;5047824;28;20209;-57
2022/03/23 02:46:12;;;;;;;13.57;11.23;;;4.50;92.90;;;;;;5036329;28;20193;-58
2022/03/23 02:48:38;;;;;;;16.27;11.38;;;4.00;92.50;;;;;;5052903;28;20233;-55
2022/03/23 02:51:03;;;;;;;16.00;10.83;;;4.40;92.50;;;;;;5052311;28;20304;-57
2022/03/23 03:02:01;;;;;;;17.02;10.80;;;4.60;92.60;;;;;;5053463;28;20642;-57
2022/03/23 03:04:27;;;;;;;13.07;11.40;;;4.50;92.70;;;;;;5053965;28;20205;-57
2022/03/23 03:06:53;;;;;;;13.33;11.07;;;4.30;92.60;;;;;;5064263;28;20191;-56
2022/03/23 03:09:21;;;;;;;12.67;10.37;;;4.40;92.90;;;;;;5054818;28;20214;-57
2022/03/23 03:11:47;;;;;;;14.32;10.18;;;4.40;92.90;;;;;;5056309;28;20209;-56
2022/03/23 03:14:13;;;;;;;12.63;10.00;;;3.80;92.90;;;;;;5055698;28;20196;-57
2022/03/23 03:16:39;;;;;;;12.57;10.23;;;4.00;93.10;;;;;;5066008;28;20295;-57
2022/03/23 03:19:08;;;;;;;15.57;11.23;;;3.80;92.90;;;;;;5040116;28;20182;-56
2022/03/23 03:21:34;;;;;;;11.18;9.88;;;4.80;93.70;;;;;;5057229;28;20973;-57
2022/03/23 03:24:01;;;;;;;16.23;11.27;;;3.80;93.40;;;;;;5062435;28;20193;-57
2022/03/23 03:26:26;;;;;;;14.50;10.65;;;4.90;94.00;;;;;;5053892;28;20190;-58
2022/03/23 03:28:52;;;;;;;13.37;10.80;;;4.30;93.90;;;;;;5059939;28;20695;-56
2022/03/23 03:31:18;;;;;;;15.40;10.80;;;4.30;94.00;;;;;;5051238;28;20740;-57
2022/03/23 03:33:44;;;;;;;14.43;11.20;;;3.80;93.40;;;;;;5051062;28;20654;-57
2022/03/23 03:36:10;;;;;;;12.90;10.70;;;4.40;93.90;;;;;;5059881;28;20870;-57
2022/03/23 03:38:37;;;;;;;13.10;10.73;;;4.50;94.00;;;;;;5042603;28;20656;-56
2022/03/23 03:41:04;;;;;;;17.02;11.00;;;4.20;93.80;;;;;;5053240;28;20211;-56
2022/03/23 03:43:30;;;;;;;13.95;11.70;;;4.10;94.10;;;;;;5056974;28;20239;-57
2022/03/23 03:45:56;;;;;;;15.27;11.77;;;3.80;94.20;;;;;;5051620;28;20180;-57
2022/03/23 03:48:21;;;;;;;18.30;11.43;;;4.20;94.60;;;;;;5054459;28;20565;-57
2022/03/23 03:50:47;;;;;;;11.67;10.00;;;4.00;94.00;;;;;;5052474;28;20191;-56
2022/03/23 03:53:13;;;;;;;14.50;10.47;;;3.80;94.60;;;;;;5041149;28;20191;-57
2022/03/23 03:55:40;;;;;;;15.30;11.00;;;4.20;94.90;;;;;;5051836;28;20522;-57
2022/03/23 03:58:08;;;;;;;14.50;11.35;;;3.60;94.90;;;;;;5031175;28;20620;-56
2022/03/23 04:00:36;;;;;;;14.15;11.70;;;4.10;95.10;;;;;;5054213;28;20244;-57
2022/03/23 04:03:05;;;;;;;17.60;13.15;;;4.20;95.30;;;;;;5054419;28;20688;-57
2022/03/23 04:05:31;;;;;;;13.50;11.32;;;3.90;95.20;;;;;;5059670;28;20203;-56
2022/03/23 04:07:57;;;;;;;17.25;11.38;;;3.50;95.00;;;;;;5055431;28;20568;-57
2022/03/23 04:10:24;;;;;;;14.40;10.52;;;4.10;95.30;;;;;;5055371;28;20203;-57
2022/03/23 04:12:49;;;;;;;13.25;10.85;;;4.40;95.50;;;;;;5056135;28;20199;-57
2022/03/23 04:15:15;;;;;;;15.67;12.00;;;3.40;94.80;;;;;;5057940;28;20194;-56
2022/03/23 04:17:42;;;;;;;12.98;10.40;;;4.00;95.10;;;;;;5051260;28;20261;-56
2022/03/23 04:20:09;;;;;;;15.23;11.52;;;4.00;95.30;;;;;;5059368;28;20181;-58
2022/03/23 04:22:35;;;;;;;14.05;10.18;;;3.80;95.30;;;;;;5061317;28;20762;-58
2022/03/23 04:25:00;;;;;;;19.87;11.17;;;3.70;95.40;;;;;;5033409;28;20194;-57
2022/03/23 04:27:26;;;;;;;14.17;10.60;;;3.40;95.10;;;;;;5050793;28;20610;-57
2022/03/23 04:29:52;;;;;;;15.30;11.87;;;3.70;95.80;;;;;;5048834;28;20272;-56
2022/03/23 04:32:17;;;;;;;15.87;11.10;;;3.30;95.70;;;;;;5053296;28;20208;-56
2022/03/23 04:34:43;;;;;;;12.97;11.13;;;3.80;95.60;;;;;;5053185;28;20187;-58
2022/03/23 04:37:09;;;;;;;15.03;11.20;;;3.70;95.60;;;;;;5051711;28;20797;-57
2022/03/23 04:39:34;;;;;;;15.53;12.20;;;4.30;96.00;;;;;;5051259;28;20671;-56
2022/03/23 04:42:00;;;;;;;18.80;11.60;;;3.30;95.60;;;;;;5057557;28;20206;-57
2022/03/23 04:44:25;;;;;;;17.30;12.80;;;3.10;95.40;;;;;;5057754;28;20208;-57
2022/03/23 04:46:51;;;;;;;17.53;12.20;;;4.10;96.10;;;;;;5051075;28;20221;-56
2022/03/23 04:49:17;;;;;;;17.43;12.07;;;3.90;96.10;;;;;;5050606;28;20221;-57
2022/03/23 04:51:42;;;;;;;17.80;12.83;;;3.10;95.80;;;;;;5059756;28;20223;-57
2022/03/23 04:54:08;;;;;;;15.20;11.93;;;3.70;96.10;;;;;;5057122;28;20243;-56
2022/03/23 04:56:33;;;;;;;14.63;11.70;;;3.70;96.60;;;;;;5052820;28;20186;-57
2022/03/23 04:58:59;;;;;;;16.90;12.03;;;3.60;96.70;;;;;;5053264;28;20247;-57
2022/03/23 05:01:25;;;;;;;14.00;11.87;;;3.80;96.60;;;;;;5051974;28;20265;-57
2022/03/23 05:03:52;;;;;;;20.60;12.00;;;3.80;96.90;;;;;;5047587;28;20867;-57
2022/03/23 05:06:18;;;;;;;15.05;12.32;;;3.60;96.70;;;;;;5050051;28;20525;-60
2022/03/23 05:08:44;;;;;;;15.02;11.60;;;2.90;96.80;;;;;;5051667;28;20572;-58
2022/03/23 05:11:09;;;;;;;16.90;12.80;;;3.60;97.10;;;;;;5058633;28;20280;-56
2022/03/23 05:13:35;;;;;;;15.07;12.27;;;3.50;96.60;;;;;;5062731;28;20198;-55
2022/03/23 05:16:01;;;;;;;18.10;13.67;;;3.60;97.00;;;;;;5050890;28;20209;-55
2022/03/23 05:18:28;;;;;;;16.00;11.95;;;3.20;96.80;;;;;;5050449;28;20616;-56
2022/03/23 05:20:53;;;;;;;18.15;12.80;;;3.50;96.80;;;;;;5050149;28;20214;-56
2022/03/23 05:23:19;;;;;;;18.90;12.90;;;3.80;97.00;;;;;;5053515;28;20206;-55
2022/03/23 05:25:45;;;;;;;18.27;13.40;;;3.70;96.90;;;;;;5058735;28;20186;-56
2022/03/23 05:28:10;;;;;;;15.73;13.37;;;4.00;97.10;;;;;;5053918;28;20686;-57
2022/03/23 05:30:36;;;;;;;18.73;13.63;;;4.10;97.60;;;;;;5048988;28;20786;-57
2022/03/23 05:33:03;;;;;;;18.27;13.63;;;4.10;97.00;;;;;;5049573;28;20194;-56
2022/03/23 05:35:28;;;;;;;18.13;13.85;;;4.10;96.70;;;;;;5047748;28;20505;-57
2022/03/23 05:37:55;;;;;;;16.60;12.70;;;4.10;96.60;;;;;;5050045;28;20195;-56
2022/03/23 05:40:21;;;;;;;18.30;13.35;;;4.20;96.40;;;;;;5049616;28;20468;-56
2022/03/23 05:42:47;;;;;;;18.63;13.63;;;4.00;96.30;;;;;;5054294;28;20206;-57
2022/03/23 05:45:14;;;;;;;22.20;13.50;;;3.70;96.10;;;;;;5067783;28;20185;-57
2022/03/23 05:47:40;;;;;;;20.13;14.68;;;4.00;95.90;;;;;;5061527;28;20198;-57
2022/03/23 05:50:07;;;;;;;15.98;12.88;;;4.80;96.30;;;;;;5052423;28;20217;-57
2022/03/23 05:52:33;;;;;;;15.95;12.65;;;4.40;96.00;;;;;;5061790;28;20201;-58
2022/03/23 05:54:59;;;;;;;29.30;15.30;;;4.20;95.80;;;;;;5054714;28;20558;-56
2022/03/23 05:57:24;;;;;;;22.77;12.60;;;4.40;96.00;;;;;;5055638;28;20190;-57
2022/03/23 05:59:50;;;;;;;16.60;13.00;;;4.70;96.10;;;;;;5052397;28;20644;-57
2022/03/23 06:02:16;;;;;;;16.00;13.27;;;4.00;95.50;;;;;;5061475;28;20460;-58
2022/03/23 06:04:41;;;;;;;18.10;13.03;;;4.00;95.60;;;;;;5059812;28;20174;-56
2022/03/23 06:07:07;;;;;;;18.70;13.50;;;3.70;95.80;;;;;;5051930;28;20237;-56
2022/03/23 06:09:32;;;;;;;17.23;13.50;;;4.30;96.00;;;;;;5056535;28;20302;-57
2022/03/23 06:11:58;;;;;;;21.23;13.40;;;4.30;95.90;;;;;;5056002;28;20258;-58
2022/03/23 06:14:24;;;;;;;17.20;13.63;;;3.80;95.70;;;;;;5055602;28;20218;-58
2022/03/23 06:16:50;;;;;;;23.37;15.00;;;4.40;96.40;;;;;;5051933;28;20244;-58
2022/03/23 06:19:17;;;;;;;18.20;13.60;;;4.50;96.10;;;;;;5061616;28;20194;-58
2022/03/23 06:21:43;;;;;;;17.83;13.23;;;4.40;96.20;;;;;;5064136;28;20219;-57
2022/03/23 06:24:08;;;;;;;20.80;13.00;;;4.50;96.20;;;;;;5072949;28;20357;-56
2022/03/23 06:26:34;;;;;;;18.40;14.30;;;4.20;95.80;;;;;;5059058;28;20216;-55
2022/03/23 06:28:59;;;;;;;18.73;14.87;;;4.60;96.10;;;;;;5057128;28;20212;-57
2022/03/23 06:31:25;;;;;;;18.20;15.30;;;4.70;95.80;;;;;;5052091;28;20207;-55
2022/03/23 06:33:51;;;;;;;22.20;15.20;;;4.70;95.80;;;;;;5051254;28;20195;-56
2022/03/23 06:36:16;;;;;;;24.30;17.27;;;5.20;95.80;;;;;;5052971;28;20274;-56
2022/03/23 06:38:42;;;;;;;24.30;17.87;;;5.30;95.30;;;;;;5053409;28;20505;-56
2022/03/23 06:41:07;;;;;;;20.60;15.70;;;5.30;95.30;;;;;;5056370;28;20246;-57
2022/03/23 06:43:33;;;;;;;21.37;15.17;;;5.20;94.70;;;;;;5064668;28;20724;-56
2022/03/23 06:46:00;;;;;;;22.30;14.63;;;5.10;94.80;;;;;;5056156;28;20224;-56
2022/03/23 06:48:25;;;;;;;19.75;14.30;;;5.40;94.90;;;;;;5059790;28;20334;-56
2022/03/23 06:50:51;;;;;;;20.50;15.83;;;4.90;94.70;;;;;;5052725;28;20676;-56
2022/03/23 06:53:16;;;;;;;21.03;15.33;;;5.90;95.00;;;;;;5054276;28;20207;-59
2022/03/23 06:55:42;;;;;;;21.50;15.80;;;5.80;94.40;;;;;;5050451;28;20222;-58
2022/03/23 06:58:08;;;;;;;19.73;15.00;;;5.90;94.10;;;;;;5051543;28;20209;-58
2022/03/23 07:00:33;;;;;;;25.13;15.80;;;6.00;93.60;;;;;;5055667;28;20186;-60
2022/03/23 07:02:59;;;;;;;18.43;14.70;;;6.30;92.80;;;;;;5051097;28;20258;-60
2022/03/23 07:05:25;;;;;;;22.83;15.07;;;7.50;91.90;;;;;;5051304;28;20187;-62
2022/03/23 07:10:35;;;;;;;20.17;15.77;;;11.80;80.30;;;;;;5051673;28;20647;-62
2022/03/23 07:13:01;;;;;;;21.53;15.20;;;11.60;73.00;;;;;;5056826;28;20178;-61
2022/03/23 07:15:27;;;;;;;21.83;14.85;;;14.00;69.00;;;;;;5050477;28;20554;-63
2022/03/23 07:17:52;;;;;;;19.53;14.70;;;15.60;61.80;;;;;;5040896;28;20292;-61
2022/03/23 07:20:18;;;;;;;26.07;15.60;;;17.00;57.50;;;;;;5053730;28;20439;-61
2022/03/23 07:22:44;;;;;;;27.40;16.83;;;18.00;54.70;;;;;;5059806;28;20459;-63
2022/03/23 07:25:10;;;;;;;18.67;16.67;;;19.50;51.60;;;;;;5055859;28;20670;-63
2022/03/23 07:27:36;;;;;;;18.17;16.25;;;19.20;50.30;;;;;;5060787;28;20707;-62
2022/03/23 07:30:02;;;;;;;20.13;17.77;;;20.10;48.20;;;;;;5054232;28;20214;-64
2022/03/23 07:32:27;;;;;;;24.00;17.67;;;20.70;46.40;;;;;;5055051;28;20197;-63
2022/03/23 07:34:53;;;;;;;21.53;17.80;;;21.60;45.30;;;;;;5054522;28;20448;-63
2022/03/23 07:37:18;;;;;;;20.90;18.70;;;21.30;43.10;;;;;;5063322;28;20669;-63
2022/03/23 07:39:44;;;;;;;20.97;18.50;;;21.40;43.60;;;;;;5062347;28;20516;-66
2022/03/23 07:42:10;;;;;;;20.30;18.30;;;21.60;42.70;;;;;;5055339;28;20741;-61
2022/03/23 07:44:36;;;;;;;19.60;17.70;;;22.30;41.70;;;;;;5046790;28;20763;-65
2022/03/23 07:47:07;;;;;;;19.50;17.50;;;22.40;41.50;;;;;;5051554;28;20539;-63
2022/03/23 07:49:32;;;;;;;19.43;17.33;;;23.10;40.40;;;;;;5052384;28;20296;-65
2022/03/23 07:52:02;;;;;;;22.03;19.83;;;23.60;39.70;;;;;;5052319;28;20539;-61
2022/03/23 07:54:27;;;;;;;21.80;18.93;;;23.30;39.40;;;;;;5059820;28;20176;-60
2022/03/23 07:56:53;;;;;;;21.80;18.80;;;23.80;38.70;;;;;;5052008;28;20951;-60
2022/03/23 07:59:19;;;;;;;20.97;18.77;;;22.20;39.40;;;;;;5050774;28;20462;-59
2022/03/23 08:01:44;;;;;;;24.80;18.80;;;18.90;42.10;;;;;;5052822;28;20206;-61
2022/03/23 08:04:10;;;;;;;22.10;19.83;;;20.30;43.20;;;;;;5051532;28;20189;-60
2022/03/23 08:06:36;;;;;;;21.87;19.63;;;21.70;41.70;;;;;;5050378;28;20216;-61
2022/03/23 08:09:03;;;;;;;22.73;20.37;;;21.90;40.50;;;;;;5050746;28;20460;-61
2022/03/23 08:11:29;;;;;;;23.60;20.77;;;21.20;41.50;;;;;;5041740;28;20208;-66
2022/03/23 08:13:56;;;;;;;21.43;19.23;;;22.20;40.80;;;;;;5056964;28;20518;-61
2022/03/23 08:16:22;;;;;;;23.77;21.30;;;23.50;39.80;;;;;;5057401;28;20518;-60
2022/03/23 08:18:47;;;;;;;22.40;18.50;;;24.10;38.30;;;;;;5050440;28;21290;-62
2022/03/23 08:21:13;;;;;;;29.93;20.43;;;22.70;38.70;;;;;;5051633;28;20466;-62
2022/03/23 08:23:40;;;;;;;22.47;20.47;;;24.20;38.00;;;;;;5054481;28;20187;-61
2022/03/23 08:26:09;;;;;;;22.17;19.83;;;24.50;36.50;;;;;;5058287;28;20203;-60
2022/03/23 08:28:36;;;;;;;22.17;19.97;;;24.30;37.50;;;;;;5054547;28;20441;-62
2022/03/23 08:31:01;;;;;;;22.37;18.90;;;24.90;36.40;;;;;;5059733;28;20454;-60
2022/03/23 08:33:32;;;;;;;21.90;19.60;;;25.40;34.70;;;;;;5063811;28;20924;-60
2022/03/23 08:35:58;;;;;;;21.97;19.60;;;24.70;35.10;;;;;;5055951;28;20190;-58
2022/03/23 08:38:24;;;;;;;23.57;21.30;;;24.50;35.90;;;;;;5057401;28;20437;-61
2022/03/23 08:40:50;;;;;;;26.10;20.40;;;24.30;36.60;;;;;;5055036;28;20446;-60
2022/03/23 08:43:16;;;;;;;22.30;20.03;;;24.20;36.30;;;;;;5054272;28;20854;-60
2022/03/23 08:45:41;;;;;;;20.87;18.87;;;23.90;36.20;;;;;;5051998;28;20195;-60
2022/03/23 08:48:09;;;;;;;22.77;20.40;;;24.20;36.20;;;;;;5052006;28;20187;-60
2022/03/23 08:50:35;;;;;;;22.50;20.30;;;24.40;36.20;;;;;;5051859;28;20295;-60
2022/03/23 08:53:02;;;;;;;21.90;19.77;;;24.30;35.70;;;;;;5051281;28;20970;-61
2022/03/23 08:55:29;;;;;;;24.30;21.10;;;24.50;35.20;;;;;;5054844;28;20450;-61
2022/03/23 08:57:56;;;;;;;22.67;20.37;;;24.40;35.40;;;;;;5055879;28;20442;-60
2022/03/23 09:00:21;;;;;;;25.07;22.40;;;23.90;34.90;;;;;;5050398;28;20467;-60
2022/03/23 09:02:47;;;;;;;24.03;21.43;;;23.50;35.70;;;;;;5053853;28;20513;-58
2022/03/23 09:05:14;;;;;;;22.40;20.07;;;22.60;36.00;;;;;;5045803;28;20182;-58
2022/03/23 09:07:43;;;;;;;24.20;21.83;;;22.50;36.70;;;;;;5053837;28;20794;-65
2022/03/23 09:10:10;;;;;;;27.13;24.60;;;23.20;36.30;;;;;;5054375;28;20494;-64
2022/03/23 09:12:39;;;;;;;23.50;20.77;;;23.20;36.10;;;;;;5057486;28;20467;-64
2022/03/23 09:15:07;;;;;;;21.40;19.30;;;23.20;36.10;;;;;;5051337;28;20440;-63
2022/03/23 09:17:33;;;;;;;21.20;18.90;;;22.80;35.10;;;;;;5050282;28;20519;-62
2022/03/23 09:20:00;;;;;;;21.80;19.77;;;22.70;35.50;;;;;;5038482;28;20539;-63
2022/03/23 09:22:27;;;;;;;22.30;19.80;;;22.80;35.60;;;;;;5068156;28;20200;-63
2022/03/23 09:24:53;;;;;;;21.77;19.57;;;22.90;35.40;;;;;;5047530;28;20525;-64
2022/03/23 09:27:19;;;;;;;30.27;18.77;;;22.70;34.90;;;;;;5052651;28;21012;-64
2022/03/23 09:29:45;;;;;;;20.50;18.43;;;21.80;35.70;;;;;;5054098;28;20545;-63
2022/03/23 09:32:12;;;;;;;21.00;19.00;;;21.70;35.70;;;;;;5050884;28;20277;-63
2022/03/23 09:34:38;;;;;;;20.27;18.33;;;22.00;35.80;;;;;;5049672;28;20435;-63
2022/03/23 09:39:57;;;;;;;19.00;17.20;;;22.60;35.20;;;;;;5022395;28;20416;-65
2022/03/23 09:42:23;;;;;;;19.63;17.67;;;22.40;35.20;;;;;;5048717;28;20742;-64
2022/03/23 09:44:52;;;;;;;21.00;18.90;;;22.60;35.00;;;;;;5055080;28;20651;-66
2022/03/23 09:47:17;;;;;;;20.17;18.07;;;22.50;35.50;;;;;;5050640;28;20435;-64
2022/03/23 09:49:43;;;;;;;21.23;19.27;;;23.30;34.50;;;;;;5047705;28;20836;-66
2022/03/23 09:52:09;;;;;;;19.77;17.80;;;23.80;33.60;;;;;;5048115;28;20210;-65
2022/03/23 09:54:34;;;;;;;21.13;18.90;;;24.10;33.10;;;;;;5049013;28;20216;-66
2022/03/23 09:57:00;;;;;;;22.00;19.80;;;25.00;32.70;;;;;;5053040;28;20264;-63
2022/03/23 09:59:25;;;;;;;20.43;18.33;;;25.90;31.90;;;;;;5049511;28;20589;-63
2022/03/23 10:01:51;;;;;;;22.10;19.83;;;24.80;32.90;;;;;;5060525;28;20220;-63
2022/03/23 10:05:07;;;;;;;23.03;19.57;;;25.40;33.20;;;;;;5033872;28;20189;-60
2022/03/23 10:07:47;;;;;;;23.10;20.07;;;24.20;33.80;;;;;;5058912;28;20696;-65
2022/03/23 10:11:09;;;;;;;21.00;19.00;;;24.80;34.20;;;;;;5051092;28;20467;-66
2022/03/23 10:13:56;;;;;;;19.83;17.63;;;25.50;32.20;;;;;;5055954;28;20459;-64
2022/03/23 10:17:03;;;;;;;19.10;17.30;;;26.50;30.50;;;;;;5048631;28;20519;-65
2022/03/23 10:19:28;;;;;;;18.03;16.30;;;26.40;29.70;;;;;;5005227;28;20819;-69
2022/03/23 10:21:54;;;;;;;13.63;12.43;;;26.60;28.30;;;;;;5058705;28;20466;-64
2022/03/23 10:24:19;;;;;;;14.93;13.53;;;26.60;26.20;;;;;;5046937;28;20181;-65
2022/03/23 10:26:49;;;;;;;14.90;13.30;;;27.00;27.00;;;;;;5055683;28;20235;-67
2022/03/23 10:29:41;;;;;;;15.90;14.40;;;27.90;25.70;;;;;;5033825;28;20242;-66
2022/03/23 10:32:08;;;;;;;14.73;13.43;;;27.70;25.30;;;;;;5054093;28;20855;-65
2022/03/23 10:34:42;;;;;;;16.43;14.93;;;27.60;25.40;;;;;;5054887;28;20439;-70
2022/03/23 10:37:09;;;;;;;15.33;13.83;;;26.50;26.00;;;;;;5066051;28;20558;-71
2022/03/23 10:39:34;;;;;;;16.43;15.03;;;26.20;26.60;;;;;;5035997;28;20647;-71
2022/03/23 10:42:10;;;;;;;16.77;15.17;;;26.00;26.70;;;;;;5060556;28;20458;-64
2022/03/23 10:44:36;;;;;;;17.67;15.93;;;24.20;27.00;;;;;;5050030;28;20181;-65
2022/03/23 10:47:02;;;;;;;17.40;15.60;;;24.00;28.00;;;;;;5056636;28;20447;-65
2022/03/23 10:49:38;;;;;;;16.80;15.10;;;23.80;28.90;;;;;;5051634;28;20476;-64
2022/03/23 10:52:15;;;;;;;18.03;15.40;;;23.00;28.70;;;;;;5058575;28;20471;-62
2022/03/23 10:54:59;;;;;;;15.67;14.17;;;22.80;29.40;;;;;;5051900;28;20431;-63
2022/03/23 10:57:43;;;;;;;15.53;14.10;;;22.40;28.90;;;;;;5048033;28;21352;-62
2022/03/23 11:00:14;;;;;;;16.23;13.63;;;22.60;29.30;;;;;;5037896;28;20767;-65
2022/03/23 11:02:49;;;;;;;15.90;14.40;;;23.30;28.60;;;;;;5051333;28;20471;-64
2022/03/23 11:05:38;;;;;;;15.07;13.70;;;23.10;27.70;;;;;;5051642;28;20446;-67
2022/03/23 11:08:07;;;;;;;14.57;13.20;;;23.70;28.10;;;;;;5053793;28;20460;-67
2022/03/23 11:16:09;;;;;;;13.20;12.10;;;25.80;26.30;;;;;;5054952;28;20451;-69
2022/03/23 11:18:35;;;;;;;14.17;12.77;;;26.30;24.70;;;;;;5059064;28;20497;-69
2022/03/23 11:21:00;;;;;;;13.67;12.23;;;26.10;24.50;;;;;;5039954;28;20516;-69
2022/03/23 11:23:30;;;;;;;14.07;12.80;;;26.10;24.70;;;;;;5055202;28;20298;-67
2022/03/23 11:25:57;;;;;;;15.47;12.87;;;25.10;24.90;;;;;;5040959;28;20193;-66
2022/03/23 11:28:23;;;;;;;13.23;11.83;;;25.40;25.40;;;;;;5052058;28;20509;-68
2022/03/23 11:30:50;;;;;;;14.10;12.90;;;25.50;25.10;;;;;;5053240;28;20474;-65
2022/03/23 11:33:21;;;;;;;13.53;12.43;;;25.30;24.80;;;;;;5058857;28;20786;-66
2022/03/23 11:35:50;;;;;;;13.00;11.77;;;24.80;24.80;;;;;;5043228;28;20461;-63
2022/03/23 11:38:22;;;;;;;12.83;11.70;;;24.50;25.00;;;;;;5062615;28;20446;-62
2022/03/23 11:40:49;;;;;;;12.83;11.67;;;24.70;24.70;;;;;;5063211;28;20450;-62
2022/03/23 11:43:17;;;;;;;11.70;10.70;;;24.40;25.00;;;;;;5056781;28;20519;-64
2022/03/23 11:45:46;;;;;;;12.50;11.40;;;24.90;25.20;;;;;;5054858;28;20476;-65
2022/03/23 11:48:39;;;;;;;12.20;11.20;;;24.50;24.50;;;;;;5059773;28;21034;-66
2022/03/23 11:51:17;;;;;;;10.70;9.70;;;23.60;24.90;;;;;;5052741;28;20463;-64
2022/03/23 11:54:05;;;;;;;11.23;10.23;;;24.20;25.00;;;;;;5061826;28;20466;-66
2022/03/23 11:56:43;;;;;;;12.20;11.00;;;23.90;24.60;;;;;;5053419;28;20464;-66
2022/03/23 11:59:28;;;;;;;16.80;15.30;;;23.80;25.70;;;;;;5051355;28;20445;-58
2022/03/23 12:01:55;;;;;;;12.47;11.37;;;24.20;24.90;;;;;;5052941;28;20534;-59
2022/03/23 12:04:29;;;;;;;11.67;10.67;;;23.90;25.10;;;;;;5049058;28;20435;-58
2022/03/23 12:07:11;;;;;;;12.67;11.47;;;22.60;24.90;;;;;;5050324;28;20439;-59
2022/03/23 12:09:42;;;;;;;15.07;11.27;;;22.30;25.50;;;;;;5060913;28;20743;-59
2022/03/23 12:12:38;;;;;;;12.50;11.20;;;22.70;25.90;;;;;;5049950;28;20455;-59
2022/03/23 12:15:24;;;;;;;12.30;11.00;;;22.60;26.50;;;;;;5050188;28;20436;-59
2022/03/23 12:17:55;;;;;;;12.50;11.27;;;22.40;25.50;;;;;;5050461;28;20439;-58
2022/03/23 12:20:28;;;;;;;11.70;10.50;;;22.20;26.10;;;;;;5049670;28;20518;-59
2022/03/23 12:23:15;;;;;;;10.90;10.00;;;22.20;26.50;;;;;;5050312;28;20463;-58
2022/03/23 12:26:02;;;;;;;11.23;10.23;;;22.00;26.20;;;;;;5031747;28;20292;-59
2022/03/23 12:28:43;;;;;;;13.20;11.50;;;21.60;26.10;;;;;;5051697;28;20335;-59
2022/03/23 12:31:14;;;;;;;12.77;11.55;;;21.30;26.70;;;;;;5040008;28;20686;-58
2022/03/23 12:34:02;;;;;;;16.52;14.82;;;20.80;26.90;;;;;;5049931;28;20193;-58
2022/03/23 12:36:58;;;;;;;11.45;10.45;;;20.70;27.30;;;;;;5068366;28;20225;-58
2022/03/23 12:39:38;;;;;;;10.93;9.90;;;20.60;26.60;;;;;;5051733;28;20181;-58
2022/03/23 12:42:16;;;;;;;11.23;10.15;;;20.70;26.20;;;;;;5057543;28;20355;-59
2022/03/23 12:44:45;;;;;;;11.88;10.77;;;20.50;26.50;;;;;;5045509;28;20205;-59
2022/03/23 12:47:16;;;;;;;12.43;11.27;;;20.20;26.60;;;;;;5057039;28;20606;-58
2022/03/23 12:58:12;;;;;;;13.82;12.52;;;20.50;27.50;;;;;;5055947;28;20200;-59
2022/03/23 13:00:42;;;;;;;12.20;11.10;;;20.40;28.20;;;;;;5064223;28;20239;-59
2022/03/23 13:03:07;;;;;;;11.30;10.35;;;19.90;27.30;;;;;;5063636;28;20199;-59
2022/03/23 13:05:38;;;;;;;12.23;11.23;;;20.30;27.10;;;;;;5051204;28;20186;-59
2022/03/23 13:08:38;;;;;;;11.85;10.75;;;20.30;27.40;;;;;;5049732;28;20201;-59